Time;durP1;ratioP1;P1;durP2;ratioP2;P2;SDS_P1;SDS_P2;PMS_P1;PMS_P2;Temp;Humidity;BMP_temperature;BMP_pressure;BME280_temperature;BME280_humidity;BME280_pressure;Samples;Min_cycle;Max_cycle;Signal;HPM_P1;HPM_P2
2021/06/22 00:03:30;;;;;;;10.53;7.15;;;;;;;25.60;95.86;98285.02;4375036;79;28483;-83
2021/06/22 00:09:34;;;;;;;11.63;7.35;;;;;;;25.47;98.02;98286.98;4396260;79;28483;-83
2021/06/22 00:15:35;;;;;;;9.23;6.87;;;;;;;25.41;97.31;98290.33;4378474;79;28556;-83
2021/06/22 00:21:36;;;;;;;10.90;7.85;;;;;;;25.60;94.13;98294.65;4376594;79;28532;-82
2021/06/22 00:27:38;;;;;;;11.83;7.28;;;;;;;25.33;97.98;98294.24;4388343;79;28477;-82
2021/06/22 00:33:39;;;;;;;10.05;7.37;;;;;;;25.28;96.06;98294.50;4367768;79;28512;-84
2021/06/22 00:39:43;;;;;;;10.98;7.50;;;;;;;25.27;98.87;98289.34;4369068;79;28445;-83
2021/06/22 00:45:45;;;;;;;10.43;7.47;;;;;;;25.18;97.76;98282.02;4374415;79;28470;-82
2021/06/22 00:51:46;;;;;;;11.50;7.58;;;;;;;25.05;99.37;98268.08;4381318;79;28426;-83
2021/06/22 00:57:48;;;;;;;14.90;8.65;;;;;;;25.20;96.81;98272.05;4350179;79;28479;-83
2021/06/22 01:03:49;;;;;;;11.83;7.87;;;;;;;25.17;96.24;98270.01;4375692;79;28584;-82
2021/06/22 01:09:51;;;;;;;10.23;7.22;;;;;;;25.08;98.19;98278.37;4372021;79;28452;-83
2021/06/22 01:15:52;;;;;;;13.75;7.92;;;;;;;25.10;97.15;98283.54;4350511;79;28490;-82
2021/06/22 01:21:53;;;;;;;13.78;8.00;;;;;;;24.54;100.00;98277.48;4362809;79;28433;-83
2021/06/22 01:27:57;;;;;;;10.80;7.90;;;;;;;24.86;100.00;98263.20;4350212;79;28462;-83
2021/06/22 01:33:58;;;;;;;11.70;7.35;;;;;;;24.72;100.00;98262.93;4367733;80;28499;-84
2021/06/22 01:40:07;;;;;;;11.65;7.95;;;;;;;24.74;100.00;98263.97;4351599;79;28475;-82
2021/06/22 01:46:09;;;;;;;10.10;7.17;;;;;;;24.72;100.00;98256.06;4371266;80;28435;-82
2021/06/22 01:52:15;;;;;;;10.32;7.50;;;;;;;24.49;100.00;98257.91;4365729;79;28495;-82
2021/06/22 01:58:19;;;;;;;;;;;;;;;24.33;100.00;98253.67;4393516;80;28536;-82
2021/06/22 02:04:27;;;;;;;9.70;7.53;;;;;;;24.46;100.00;98253.67;4351063;79;20223;-84
2021/06/22 02:10:29;;;;;;;11.33;7.83;;;;;;;24.31;100.00;98258.71;4330048;79;28549;-83
2021/06/22 02:16:43;;;;;;;10.08;7.80;;;;;;;24.22;100.00;98258.83;4363710;79;28513;-87
2021/06/22 02:22:44;;;;;;;12.95;8.23;;;;;;;24.51;100.00;98269.35;4399702;78;28428;-86
2021/06/22 02:28:47;;;;;;;10.95;8.00;;;;;;;24.67;100.00;98280.23;4352083;80;28457;-87
2021/06/22 02:34:51;;;;;;;11.25;7.95;;;;;;;24.51;100.00;98286.42;4323082;80;28459;-86
2021/06/22 02:40:52;;;;;;;12.85;7.95;;;;;;;24.65;100.00;98286.09;4346511;80;28533;-86
2021/06/22 02:46:55;;;;;;;10.48;7.90;;;;;;;24.58;100.00;98295.47;4401579;78;28437;-86
2021/06/22 02:52:58;;;;;;;10.82;7.75;;;;;;;24.46;100.00;98308.61;4421201;78;28523;-85
2021/06/22 02:59:00;;;;;;;12.70;8.10;;;;;;;24.33;100.00;98318.80;4433548;78;28464;-86
2021/06/22 03:05:02;;;;;;;11.40;8.28;;;;;;;24.50;100.00;98316.42;4412720;78;28487;-86
2021/06/22 03:11:04;;;;;;;11.97;8.20;;;;;;;24.49;100.00;98309.33;4330744;79;28490;-84
2021/06/22 03:17:07;;;;;;;11.95;7.83;;;;;;;24.92;100.00;98321.72;4332571;81;28451;-87
2021/06/22 03:23:10;;;;;;;13.10;8.18;;;;;;;25.01;100.00;98320.80;4337068;80;28484;-83
2021/06/22 03:29:12;;;;;;;14.40;8.38;;;;;;;25.12;100.00;98326.05;4314839;80;28492;-85
2021/06/22 03:35:29;;;;;;;15.90;8.00;;;;;;;25.26;100.00;98330.38;4310568;80;28521;-85
2021/06/22 03:41:32;;;;;;;9.05;7.62;;;;;;;25.34;100.00;98329.44;4331333;80;28504;-84
2021/06/22 03:47:34;;;;;;;10.20;7.87;;;;;;;25.73;98.80;98338.08;4321045;80;28474;-83
2021/06/22 03:53:38;;;;;;;15.32;8.50;;;;;;;25.74;100.00;98334.73;4340663;80;28501;-85
2021/06/22 03:59:39;;;;;;;14.28;7.90;;;;;;;25.72;100.00;98344.73;4398847;79;28455;-86
2021/06/22 04:05:41;;;;;;;11.75;7.80;;;;;;;26.03;99.66;98344.59;4312091;80;28464;-86
2021/06/22 04:11:57;;;;;;;13.00;7.77;;;;;;;26.35;96.81;98338.95;4389672;80;28453;-88
2021/06/22 04:18:08;;;;;;;16.73;9.20;;;;;;;26.84;95.73;98331.66;4291112;81;28470;-86
2021/06/22 04:24:10;;;;;;;18.40;9.10;;;;;;;27.12;90.91;98334.09;4282946;81;28479;-87
2021/06/22 04:30:13;;;;;;;17.27;9.50;;;;;;;27.23;88.89;98329.64;4213056;82;28572;-86
2021/06/22 04:36:15;;;;;;;18.15;9.58;;;;;;;27.52;88.74;98327.46;4382412;79;28536;-85
2021/06/22 04:42:16;;;;;;;20.37;11.30;;;;;;;27.79;85.83;98322.13;4387391;80;28487;-85
2021/06/22 04:48:20;;;;;;;20.75;10.13;;;;;;;27.76;85.08;98332.53;4367962;79;28505;-87
2021/06/22 04:54:23;;;;;;;17.62;10.88;;;;;;;27.94;85.40;98343.91;4380854;79;28471;-84
2021/06/22 05:00:27;;;;;;;17.07;9.68;;;;;;;28.04;83.78;98346.65;4249320;81;28434;-84
2021/06/22 05:06:28;;;;;;;17.40;10.10;;;;;;;28.26;81.47;98345.69;4373989;80;28488;-85
2021/06/22 05:12:29;;;;;;;22.17;9.83;;;;;;;28.27;79.49;98348.67;4335776;80;28500;-87
2021/06/22 05:18:31;;;;;;;16.77;10.70;;;;;;;28.11;80.33;98360.61;4324942;80;28525;-87
2021/06/22 05:24:33;;;;;;;17.30;10.18;;;;;;;27.91;81.15;98358.46;4346667;80;28482;-87
2021/06/22 05:30:35;;;;;;;18.57;9.38;;;;;;;27.95;80.43;98362.08;4288717;81;28463;-86
2021/06/22 05:36:36;;;;;;;12.88;9.03;;;;;;;28.48;78.37;98375.09;4348432;80;28491;-87
2021/06/22 05:42:37;;;;;;;16.02;8.68;;;;;;;28.58;77.21;98380.02;4270209;81;28532;-87
2021/06/22 05:48:39;;;;;;;13.08;8.85;;;;;;;28.46;76.53;98373.28;4329889;80;28470;-90
2021/06/22 05:54:40;;;;;;;14.53;8.68;;;;;;;28.61;76.16;98375.14;4355827;80;28491;-90
2021/06/22 06:00:42;;;;;;;17.87;8.88;;;;;;;28.78;74.93;98376.61;4344147;80;28414;-89
2021/06/22 06:06:43;;;;;;;20.62;8.80;;;;;;;28.85;74.68;98368.25;4340537;80;28548;-91
2021/06/22 06:12:45;;;;;;;13.53;8.35;;;;;;;29.08;75.00;98372.34;4364084;80;28539;-90
2021/06/22 06:18:46;;;;;;;12.95;8.48;;;;;;;29.09;72.36;98368.40;4345193;81;28534;-88
2021/06/22 06:24:48;;;;;;;13.78;7.60;;;;;;;29.28;70.61;98362.55;4319512;81;28421;-87
2021/06/22 06:30:49;;;;;;;17.85;8.33;;;;;;;29.39;69.25;98353.80;4324064;80;28520;-90
2021/06/22 06:43:00;;;;;;;19.37;8.88;;;;;;;29.39;69.27;98363.48;3963031;89;28531;-89
2021/06/22 06:49:02;;;;;;;13.58;7.50;;;;;;;29.55;70.49;98356.41;3955751;88;28480;-90
2021/06/22 06:55:05;;;;;;;15.93;7.55;;;;;;;29.75;68.72;98372.88;3935964;89;28468;-87
2021/06/22 07:01:07;;;;;;;9.43;6.53;;;;;;;29.90;65.49;98377.42;3916723;90;28458;-86
2021/06/22 07:07:12;;;;;;;9.45;7.00;;;;;;;30.16;62.37;98379.91;3913256;90;28509;-90
2021/06/22 07:13:16;;;;;;;8.83;7.05;;;;;;;30.28;61.66;98389.94;3835388;90;28538;-86
2021/06/22 07:19:18;;;;;;;10.65;7.10;;;;;;;30.45;61.73;98398.23;4149404;80;28450;-90
2021/06/22 07:25:28;;;;;;;11.08;7.12;;;;;;;30.59;63.13;98398.14;4357089;80;28573;-91
2021/06/22 07:31:28;;;;;;;12.33;7.62;;;;;;;30.44;61.53;98387.50;4336850;80;28475;-91
2021/06/22 07:37:31;;;;;;;12.23;7.25;;;;;;;30.92;59.87;98397.07;4291084;80;28530;-91
2021/06/22 07:43:32;;;;;;;10.35;7.12;;;;;;;31.06;60.80;98388.84;4348399;80;28524;-92
2021/06/22 07:49:34;;;;;;;11.97;7.03;;;;;;;31.28;59.41;98389.01;4379950;78;28585;-90
2021/06/22 07:55:35;;;;;;;9.33;6.20;;;;;;;31.41;57.80;98388.91;4348465;80;28444;-93
2021/06/22 08:01:37;;;;;;;10.95;6.85;;;;;;;31.68;57.60;98406.69;4383821;78;28471;-91
2021/06/22 08:07:38;;;;;;;11.38;7.67;;;;;;;31.65;53.52;98414.42;4352394;80;28485;-90
2021/06/22 08:13:40;;;;;;;13.15;7.53;;;;;;;31.83;56.33;98425.64;4336665;81;28474;-92
2021/06/22 08:19:41;;;;;;;13.38;7.92;;;;;;;31.98;55.91;98427.89;4312340;82;28520;-92
2021/06/22 08:25:43;;;;;;;10.43;7.50;;;;;;;31.69;56.87;98441.62;4347201;80;28440;-93
2021/06/22 08:31:45;;;;;;;10.03;7.62;;;;;;;32.09;55.69;98456.32;4337595;82;28509;-91
2021/06/22 08:37:46;;;;;;;13.98;8.50;;;;;;;32.04;56.04;98468.61;4344875;80;28465;-82
2021/06/22 08:43:50;;;;;;;8.00;7.20;;;;;;;32.04;56.56;98462.27;4335121;82;28433;-90
2021/06/22 08:49:53;;;;;;;9.73;7.75;;;;;;;32.31;51.90;98468.91;4331398;80;28472;-85
2021/06/22 08:55:54;;;;;;;14.18;8.93;;;;;;;32.22;55.02;98478.41;4330336;80;28491;-89
2021/06/22 09:01:56;;;;;;;11.45;8.48;;;;;;;32.15;56.75;98477.59;4394828;80;28439;-87
2021/06/22 09:07:58;;;;;;;10.65;7.58;;;;;;;31.82;55.84;98483.80;4345506;80;28487;-88
2021/06/22 09:14:05;;;;;;;11.08;7.20;;;;;;;32.26;52.49;98478.42;4358068;80;28511;-86
2021/06/22 09:20:09;;;;;;;11.20;7.45;;;;;;;32.25;52.55;98482.40;4351440;80;28533;-91
2021/06/22 09:26:22;;;;;;;11.15;7.03;;;;;;;32.50;52.04;98485.89;4350827;80;28478;-91
2021/06/22 09:32:30;;;;;;;10.18;7.28;;;;;;;32.33;50.26;98458.98;4353410;80;28572;-85
2021/06/22 09:38:50;;;;;;;9.40;6.83;;;;;;;32.29;51.83;98465.73;4347908;80;28491;-85
2021/06/22 09:44:51;;;;;;;9.08;5.58;;;;;;;32.22;52.37;98444.27;4344696;81;28500;-85
2021/06/22 09:50:52;;;;;;;8.10;5.55;;;;;;;32.76;45.20;98454.15;4338851;81;28436;-84
2021/06/22 09:57:05;;;;;;;7.20;5.85;;;;;;;33.01;44.06;98429.72;4330779;80;28535;-85
2021/06/22 10:03:07;;;;;;;9.90;6.15;;;;;;;33.22;45.35;98447.61;4337301;80;28519;-85
2021/06/22 10:09:08;;;;;;;9.88;6.50;;;;;;;33.32;47.31;98462.70;4348393;80;28459;-82
2021/06/22 10:15:16;;;;;;;8.85;6.00;;;;;;;33.58;48.32;98472.63;4379960;80;28500;-84
2021/06/22 10:21:18;;;;;;;11.15;6.20;;;;;;;33.77;47.53;98471.41;4366174;79;28502;-86
2021/06/22 10:27:21;;;;;;;8.40;5.33;;;;;;;33.84;48.16;98469.20;4422661;78;28486;-85
2021/06/22 10:33:22;;;;;;;8.75;5.10;;;;;;;33.95;47.45;98465.58;4335035;80;28531;-89
2021/06/22 10:39:43;;;;;;;9.23;5.40;;;;;;;33.82;48.39;98468.00;4354633;80;28448;-85
2021/06/22 10:46:02;;;;;;;7.85;5.28;;;;;;;33.93;45.94;98461.78;4421776;78;28519;-89
2021/06/22 10:52:03;;;;;;;10.50;5.45;;;;;;;33.40;46.86;98462.11;4327642;80;28519;-84
2021/06/22 10:58:09;;;;;;;8.28;5.47;;;;;;;33.50;46.86;98453.75;4344856;80;28535;-81
2021/06/22 11:04:11;;;;;;;9.50;5.80;;;;;;;33.97;46.01;98450.04;4307786;80;28537;-82
2021/06/22 11:10:15;;;;;;;9.73;5.92;;;;;;;33.50;47.18;98452.36;4325894;80;28520;-82
2021/06/22 11:16:22;;;;;;;11.93;5.50;;;;;;;33.96;47.33;98451.24;4331127;80;28535;-83
2021/06/22 11:22:29;;;;;;;9.60;5.45;;;;;;;34.24;46.28;98446.74;4347686;80;28465;-82
2021/06/22 11:29:00;;;;;;;10.90;5.65;;;;;;;33.61;47.58;98450.95;4324362;80;28532;-82
2021/06/22 11:35:05;;;;;;;7.65;5.10;;;;;;;32.86;49.13;98463.69;4407665;78;28471;-84
2021/06/22 11:41:16;;;;;;;7.83;5.28;;;;;;;32.66;49.10;98465.45;4365899;80;28464;-83
2021/06/22 11:47:35;;;;;;;11.85;5.55;;;;;;;32.92;46.12;98463.53;4363880;80;28487;-83
2021/06/22 11:53:40;;;;;;;12.30;6.25;;;;;;;32.92;47.38;98460.75;4334421;80;28494;-83
2021/06/22 11:59:43;;;;;;;9.90;6.47;;;;;;;32.87;48.86;98451.97;4319396;80;28502;-82
2021/06/22 12:05:46;;;;;;;13.35;9.33;;;;;;;32.88;49.42;98445.20;4320674;80;28542;-81
2021/06/22 12:11:48;;;;;;;12.20;6.70;;;;;;;33.10;47.58;98438.47;4326638;80;28496;-82
2021/06/22 12:17:50;;;;;;;9.23;6.35;;;;;;;33.20;47.18;98434.07;4319060;80;28516;-81
2021/06/22 12:24:00;;;;;;;9.83;6.30;;;;;;;32.89;46.02;98414.17;4340824;80;28553;-81
2021/06/22 12:30:02;;;;;;;8.50;5.67;;;;;;;33.13;45.62;98416.00;4312392;80;28549;-81
2021/06/22 12:36:11;;;;;;;10.30;5.50;;;;;;;33.86;43.44;98418.02;4395378;79;28567;-82
2021/06/22 12:42:19;;;;;;;11.53;6.00;;;;;;;33.93;43.02;98419.38;4401444;79;28519;-81
2021/06/22 12:48:15;;;;;;;11.33;6.67;;;;;;;33.27;43.08;98408.20;4409467;79;28487;-81
2021/06/22 12:54:17;;;;;;;10.45;5.70;;;;;;;33.34;42.90;98399.83;4411425;79;28478;-82
2021/06/22 13:00:49;;;;;;;10.65;6.28;;;;;;;33.35;43.33;98405.59;4389115;79;28498;-81
2021/06/22 13:06:52;;;;;;;14.00;6.53;;;;;;;33.75;42.00;98400.54;4351941;80;28556;-80
2021/06/22 13:12:54;;;;;;;10.38;5.78;;;;;;;34.06;43.43;98406.41;4329518;80;28467;-82
2021/06/22 13:19:03;;;;;;;7.72;5.55;;;;;;;34.27;42.00;98411.08;4346990;80;28524;-82
2021/06/22 13:25:10;;;;;;;10.10;6.00;;;;;;;34.24;41.24;98405.52;4341468;80;28586;-82
2021/06/22 13:31:12;;;;;;;9.25;5.72;;;;;;;34.42;39.45;98388.66;4328926;80;28464;-83
2021/06/22 13:37:14;;;;;;;9.80;5.87;;;;;;;34.86;38.62;98382.95;4335074;80;28498;-80
2021/06/22 13:43:27;;;;;;;12.20;5.90;;;;;;;34.86;38.62;98382.95;4347899;80;28449;-82
2021/06/22 13:49:42;;;;;;;9.65;6.40;;;;;;;35.11;38.79;98375.58;4327067;80;28492;-79
2021/06/22 13:55:44;;;;;;;10.00;6.28;;;;;;;35.01;38.75;98364.07;4371313;80;28511;-80
2021/06/22 14:01:46;;;;;;;10.95;6.10;;;;;;;34.99;39.48;98364.28;4328072;80;28470;-81
2021/06/22 14:07:47;;;;;;;10.40;6.30;;;;;;;35.00;40.22;98364.50;4360301;80;28449;-82
2021/06/22 14:13:50;;;;;;;12.33;6.10;;;;;;;35.45;38.22;98374.22;4328546;79;28532;-81
2021/06/22 14:19:51;;;;;;;8.90;6.08;;;;;;;35.45;38.22;98374.22;4366214;79;28489;-82
2021/06/22 14:25:53;;;;;;;9.43;5.80;;;;;;;35.57;37.95;98348.36;4349007;79;28452;-81
2021/06/22 14:31:54;;;;;;;10.65;7.10;;;;;;;35.67;38.44;98367.00;4365276;79;28432;-81
2021/06/22 14:37:56;;;;;;;11.10;7.40;;;;;;;35.46;38.63;98358.26;4361498;79;28535;-81
2021/06/22 14:43:57;;;;;;;9.30;6.10;;;;;;;35.80;37.16;98378.42;4359125;79;28489;-81
2021/06/22 14:49:59;;;;;;;7.67;6.03;;;;;;;35.38;36.80;98388.27;4361947;79;28493;-81
2021/06/22 14:56:00;;;;;;;9.28;6.55;;;;;;;35.90;36.18;98395.48;4366851;80;28499;-82
2021/06/22 15:02:02;;;;;;;9.05;6.30;;;;;;;35.99;36.06;98388.16;4344557;79;28564;-81
2021/06/22 15:08:05;;;;;;;10.03;6.15;;;;;;;36.03;35.88;98385.31;4358813;79;28528;-81
2021/06/22 15:14:07;;;;;;;9.50;6.28;;;;;;;36.12;35.80;98375.83;4362209;79;28547;-82
2021/06/22 15:20:17;;;;;;;11.73;5.85;;;;;;;35.59;37.13;98387.27;4357405;79;28587;-82
2021/06/22 15:26:18;;;;;;;11.00;6.47;;;;;;;35.09;37.66;98391.34;4366612;79;28597;-81
2021/06/22 15:32:19;;;;;;;12.37;7.03;;;;;;;35.43;37.08;98380.83;4377367;79;28450;-82
2021/06/22 15:38:21;;;;;;;11.40;7.03;;;;;;;35.43;38.48;98378.04;4371539;79;28530;-81
2021/06/22 15:44:23;;;;;;;12.65;6.85;;;;;;;35.24;38.70;98387.03;4376011;79;28477;-81
2021/06/22 15:50:24;;;;;;;11.38;6.90;;;;;;;35.14;39.08;98367.17;4370580;79;28468;-81
2021/06/22 15:56:26;;;;;;;12.58;6.50;;;;;;;34.90;39.71;98353.61;4373353;79;28453;-80
2021/06/22 16:02:28;;;;;;;11.48;7.25;;;;;;;34.69;39.86;98350.42;4364524;79;28460;-89
2021/06/22 16:08:30;;;;;;;12.70;7.17;;;;;;;33.79;42.17;98344.17;4387185;79;28611;-81
2021/06/22 16:14:34;;;;;;;11.20;6.60;;;;;;;34.16;42.33;98355.35;4381815;79;28513;-83
2021/06/22 16:20:35;;;;;;;11.25;7.35;;;;;;;34.71;41.88;98390.66;4374028;80;28523;-83
2021/06/22 16:26:36;;;;;;;10.20;6.50;;;;;;;34.71;42.19;98414.38;4366486;79;28542;-82
2021/06/22 16:32:40;;;;;;;12.58;6.33;;;;;;;34.42;43.00;98385.28;4364928;79;28492;-85
2021/06/22 16:38:42;;;;;;;11.88;6.83;;;;;;;34.42;43.00;98385.28;4358844;81;28570;-83
2021/06/22 16:44:43;;;;;;;10.65;7.00;;;;;;;34.08;44.18;98397.03;4348242;80;28495;-84
2021/06/22 16:50:45;;;;;;;10.55;6.37;;;;;;;33.63;44.72;98397.00;4430141;79;28505;-84
2021/06/22 16:56:46;;;;;;;11.68;6.10;;;;;;;33.23;46.15;98382.35;4425956;80;28511;-83
2021/06/22 17:02:48;;;;;;;9.48;6.15;;;;;;;33.32;46.10;98406.99;4435141;80;28425;-83
2021/06/22 17:08:49;;;;;;;11.25;6.05;;;;;;;33.07;46.90;98442.05;4446405;80;28467;-83
2021/06/22 17:14:50;;;;;;;22.27;6.40;;;;;;;32.61;51.65;98472.00;4371019;80;28503;-83
2021/06/22 17:20:51;;;;;;;35.80;6.10;;;;;;;31.39;56.55;98541.22;4389932;80;28483;-83
2021/06/22 17:26:53;;;;;;;11.33;4.42;;;;;;;29.28;66.49;98552.15;4339542;81;28440;-83
2021/06/22 18:17:51;;;;;;;11.75;5.62;;;;;;;25.78;100.00;98634.34;3644621;97;28504;-84
2021/06/22 18:23:53;;;;;;;11.10;5.75;;;;;;;26.17;100.00;98614.11;3759590;93;28512;-84
2021/06/22 18:29:54;;;;;;;11.95;5.62;;;;;;;26.42;100.00;98614.67;4109959;83;28510;-84
2021/06/22 18:35:57;;;;;;;9.95;5.67;;;;;;;26.72;100.00;98629.53;4273701;83;28477;-82
2021/06/22 18:41:58;;;;;;;11.60;6.75;;;;;;;27.26;100.00;98635.19;4284106;83;28459;-82
2021/06/22 18:48:03;;;;;;;13.98;6.78;;;;;;;27.10;100.00;98658.61;4306162;82;28443;-83
2021/06/22 18:54:05;;;;;;;9.53;6.10;;;;;;;27.15;100.00;98660.31;4295168;83;28478;-85
2021/06/22 19:00:08;;;;;;;9.98;6.42;;;;;;;26.94;100.00;98672.91;4314881;82;28522;-85
2021/06/22 19:06:09;;;;;;;8.98;6.78;;;;;;;27.36;100.00;98709.75;4335902;82;28472;-85
2021/06/22 19:12:11;;;;;;;13.88;7.33;;;;;;;27.30;100.00;98704.28;4395591;80;28481;-85
2021/06/22 19:18:12;;;;;;;12.25;7.35;;;;;;;27.36;100.00;98689.65;4378187;80;28501;-86
2021/06/22 19:24:14;;;;;;;9.68;7.12;;;;;;;27.32;100.00;98677.69;4315571;80;28462;-84
2021/06/22 19:30:21;;;;;;;9.85;6.28;;;;;;;27.18;100.00;98682.23;4354617;80;28457;-85
2021/06/22 19:36:25;;;;;;;11.88;7.00;;;;;;;26.97;100.00;98699.22;4296591;80;28507;-82
2021/06/22 19:42:26;;;;;;;10.48;6.10;;;;;;;27.02;100.00;98750.59;4351046;80;28509;-82
2021/06/22 19:48:27;;;;;;;11.73;6.47;;;;;;;26.93;100.00;98760.95;4380344;78;28489;-83
2021/06/22 19:54:29;;;;;;;11.33;6.78;;;;;;;26.81;100.00;98754.84;4346224;80;28442;-83
2021/06/22 20:00:31;;;;;;;12.55;7.50;;;;;;;26.47;100.00;98756.95;4375124;78;28534;-84
2021/06/22 20:06:33;;;;;;;11.88;8.08;;;;;;;26.69;100.00;98749.58;4343734;80;28483;-82
2021/06/22 20:12:34;;;;;;;12.45;7.75;;;;;;;26.68;100.00;98738.32;4364992;78;28464;-82
2021/06/22 20:18:35;;;;;;;12.80;8.18;;;;;;;26.65;100.00;98722.48;4376096;78;28483;-82
2021/06/22 20:24:37;;;;;;;16.37;8.68;;;;;;;26.61;100.00;98711.12;4357833;78;28511;-81
2021/06/22 20:30:39;;;;;;;12.50;7.65;;;;;;;26.57;100.00;98703.55;4371277;78;28525;-81
2021/06/22 20:36:40;;;;;;;12.10;7.95;;;;;;;26.33;100.00;98701.62;4366908;79;28445;-82
2021/06/22 20:42:42;;;;;;;10.03;7.22;;;;;;;26.59;100.00;98728.81;4385152;78;28572;-86
2021/06/22 20:48:46;;;;;;;12.43;7.92;;;;;;;26.52;100.00;98740.19;4370357;78;28503;-82
2021/06/22 20:54:47;;;;;;;11.97;7.87;;;;;;;26.41;100.00;98728.26;4360708;78;28485;-82
2021/06/22 21:00:50;;;;;;;11.73;7.37;;;;;;;26.56;100.00;98734.20;4364334;78;28469;-78
2021/06/22 21:06:52;;;;;;;11.45;7.12;;;;;;;26.25;100.00;98752.13;4368105;78;28467;-81
2021/06/22 21:12:53;;;;;;;9.23;6.70;;;;;;;26.26;100.00;98765.57;4366916;78;28495;-80
2021/06/22 21:18:54;;;;;;;9.73;6.70;;;;;;;26.42;100.00;98775.34;4344833;80;28454;-79
2021/06/22 21:24:57;;;;;;;11.20;7.22;;;;;;;26.18;100.00;98779.63;4273249;81;28449;-81
2021/06/22 21:31:00;;;;;;;12.82;8.00;;;;;;;26.07;100.00;98781.81;4342285;80;28478;-79
2021/06/22 21:37:02;;;;;;;13.75;6.90;;;;;;;26.00;100.00;98780.41;4340983;80;28527;-79
2021/06/22 21:43:03;;;;;;;13.50;7.97;;;;;;;26.24;100.00;98768.43;4258485;81;28551;-82
2021/06/22 21:49:04;;;;;;;13.85;8.20;;;;;;;26.21;100.00;98779.55;4329700;80;28502;-78
2021/06/22 21:55:08;;;;;;;13.38;8.18;;;;;;;26.18;100.00;98799.50;4332848;80;28568;-78
2021/06/22 22:01:10;;;;;;;12.40;8.48;;;;;;;26.16;100.00;98794.33;4269500;81;28445;-80
2021/06/22 22:07:12;;;;;;;13.13;7.95;;;;;;;26.11;100.00;98810.27;4321214;80;28609;-79
2021/06/22 22:13:13;;;;;;;14.73;8.60;;;;;;;26.24;100.00;98821.59;4348548;79;28500;-79
2021/06/22 22:19:15;;;;;;;13.35;8.50;;;;;;;26.15;100.00;98824.41;4416482;78;28470;-81
2021/06/22 22:25:17;;;;;;;14.73;9.13;;;;;;;26.20;100.00;98836.39;4423094;78;28469;-80
2021/06/22 22:31:19;;;;;;;14.78;10.35;;;;;;;26.17;100.00;98841.39;4415569;78;28452;-80
2021/06/22 22:37:20;;;;;;;17.73;12.07;;;;;;;26.05;100.00;98822.67;4353157;80;28463;-80
2021/06/22 22:43:21;;;;;;;20.30;12.95;;;;;;;25.71;100.00;98819.92;4357706;80;28509;-80
2021/06/22 22:49:24;;;;;;;20.05;12.88;;;;;;;25.80;100.00;98827.52;4361192;80;28519;-80
2021/06/22 22:55:25;;;;;;;18.50;12.28;;;;;;;25.95;100.00;98830.77;4358190;80;28511;-79
2021/06/22 23:01:26;;;;;;;16.17;11.90;;;;;;;25.84;100.00;98830.41;4345892;80;28469;-79
2021/06/22 23:07:27;;;;;;;21.77;13.53;;;;;;;25.83;100.00;98827.43;4363876;80;28436;-79
2021/06/22 23:13:28;;;;;;;19.30;13.88;;;;;;;25.74;100.00;98833.00;4361417;80;28524;-80
2021/06/22 23:19:31;;;;;;;24.27;14.68;;;;;;;25.79;100.00;98836.11;4359516;80;28483;-80
2021/06/22 23:25:32;;;;;;;23.50;14.93;;;;;;;25.68;100.00;98845.38;4355984;80;28555;-80
2021/06/22 23:31:34;;;;;;;23.90;15.72;;;;;;;25.66;100.00;98848.45;4362762;80;28450;-80
2021/06/22 23:37:35;;;;;;;21.25;15.40;;;;;;;25.37;100.00;98853.45;4324445;80;28456;-80
2021/06/22 23:43:37;;;;;;;22.15;14.80;;;;;;;25.49;100.00;98859.02;4335314;80;28452;-81
2021/06/22 23:49:38;;;;;;;22.65;15.28;;;;;;;25.24;100.00;98868.48;4331642;80;28493;-81
2021/06/22 23:55:40;;;;;;;24.55;15.60;;;;;;;25.04;100.00;98859.89;4383099;80;28521;-82
